createdAt,value
2024-05-09T00:00:31.585Z,12.48
2024-05-09T00:01:27.085Z,12.48
2024-05-09T00:02:27.085Z,12.44
2024-05-09T00:03:27.075Z,12.44
2024-05-09T00:04:27.025Z,12.44
2024-05-09T00:05:27.110Z,12.41
2024-05-09T00:06:26.968Z,12.42
2024-05-09T00:07:26.959Z,12.38
2024-05-09T00:08:27.064Z,12.37
2024-05-09T00:09:26.967Z,12.33
2024-05-09T00:10:35.243Z,12.33
2024-05-09T00:11:27.014Z,12.33
2024-05-09T00:12:26.940Z,12.31
2024-05-09T00:13:26.894Z,12.33
2024-05-09T00:14:26.955Z,12.37
2024-05-09T00:15:26.884Z,12.29
2024-05-09T00:16:26.988Z,12.31
2024-05-09T00:17:26.998Z,12.27
2024-05-09T00:18:26.968Z,12.27
2024-05-09T00:19:26.964Z,12.26
2024-05-09T00:20:35.115Z,12.27
2024-05-09T00:21:26.826Z,12.26
2024-05-09T00:22:26.827Z,12.19
2024-05-09T00:23:26.863Z,12.23
2024-05-09T00:24:26.783Z,12.20
2024-05-09T00:25:26.750Z,12.19
2024-05-09T00:26:26.786Z,12.19
2024-05-09T00:27:26.734Z,12.16
2024-05-09T00:28:26.757Z,12.15
2024-05-09T00:29:26.823Z,12.09
2024-05-09T00:30:33.580Z,12.08
2024-05-09T00:31:26.764Z,12.06
2024-05-09T00:32:26.900Z,12.04
2024-05-09T00:33:27.105Z,12.01
2024-05-09T00:34:26.949Z,12.05
2024-05-09T00:35:26.672Z,11.99
2024-05-09T00:36:26.641Z,11.97
2024-05-09T00:37:26.746Z,11.99
2024-05-09T00:38:26.646Z,11.99
2024-05-09T00:39:28.741Z,12.01
2024-05-09T00:40:35.611Z,11.97
2024-05-09T00:41:26.655Z,11.97
2024-05-09T00:42:26.679Z,11.94
2024-05-09T00:43:26.712Z,11.93
2024-05-09T00:44:26.607Z,11.94
2024-05-09T00:45:26.561Z,11.89
2024-05-09T00:46:26.565Z,11.89
2024-05-09T00:47:26.822Z,11.90
2024-05-09T00:48:26.915Z,11.87
2024-05-09T00:49:26.826Z,11.85
2024-05-09T00:50:35.296Z,11.80
2024-05-09T00:51:26.596Z,11.83
2024-05-09T00:52:26.555Z,11.78
2024-05-09T00:53:26.487Z,11.85
2024-05-09T00:54:26.440Z,11.80
2024-05-09T00:55:26.456Z,11.82
2024-05-09T00:56:26.498Z,11.80
2024-05-09T00:57:26.433Z,11.78
2024-05-09T00:58:26.429Z,11.78
2024-05-09T00:59:26.701Z,11.77
2024-05-09T01:00:32.077Z,11.75
2024-05-09T01:01:26.397Z,11.71
2024-05-09T01:02:26.695Z,11.74
2024-05-09T01:03:26.808Z,11.72
2024-05-09T01:04:26.405Z,11.68
2024-05-09T01:05:26.357Z,11.70
2024-05-09T01:06:26.336Z,11.68
2024-05-09T01:07:26.355Z,11.64
2024-05-09T01:08:26.356Z,11.62
2024-05-09T01:09:26.277Z,11.57
2024-05-09T01:10:33.588Z,11.57
2024-05-09T01:11:26.427Z,11.59
2024-05-09T01:12:26.326Z,11.59
2024-05-09T01:13:26.299Z,11.57
2024-05-09T01:14:26.331Z,11.56
2024-05-09T01:15:26.231Z,11.54
2024-05-09T01:16:26.290Z,11.52
2024-05-09T01:17:26.297Z,11.49
2024-05-09T01:18:26.236Z,11.49
2024-05-09T01:19:26.562Z,11.44
2024-05-09T01:20:36.817Z,11.44
2024-05-09T01:21:26.194Z,11.47
2024-05-09T01:22:26.174Z,11.43
2024-05-09T01:23:26.185Z,11.43
2024-05-09T01:24:26.120Z,11.39
2024-05-09T01:25:26.188Z,11.43
2024-05-09T01:26:26.130Z,11.39
2024-05-09T01:27:26.086Z,11.35
2024-05-09T01:28:26.075Z,11.36
2024-05-09T01:29:26.163Z,11.36
2024-05-09T01:30:33.018Z,11.35
2024-05-09T01:31:26.064Z,11.36
2024-05-09T01:32:26.166Z,11.32
2024-05-09T01:33:26.438Z,11.32
2024-05-09T01:34:26.127Z,11.34
2024-05-09T01:35:26.053Z,11.31
2024-05-09T01:36:25.985Z,11.32
2024-05-09T01:37:25.993Z,11.31
2024-05-09T01:38:26.032Z,11.27
2024-05-09T01:39:25.952Z,11.28
2024-05-09T01:40:36.146Z,11.27
2024-05-09T01:41:26.018Z,11.29
2024-05-09T01:42:25.986Z,11.25
2024-05-09T01:43:25.940Z,11.24
2024-05-09T01:44:26.030Z,11.19
2024-05-09T01:45:25.886Z,11.20
2024-05-09T01:46:25.868Z,11.20
2024-05-09T01:47:26.155Z,11.21
2024-05-09T01:48:25.931Z,11.21
2024-05-09T01:49:25.995Z,11.17
2024-05-09T01:50:37.061Z,11.20
2024-05-09T01:51:25.862Z,11.19
2024-05-09T01:52:25.851Z,11.20
2024-05-09T01:53:25.837Z,11.14
2024-05-09T01:54:25.823Z,11.13
2024-05-09T01:55:25.797Z,11.16
2024-05-09T01:56:25.807Z,11.11
2024-05-09T01:57:25.797Z,11.11
2024-05-09T01:58:25.760Z,11.09
2024-05-09T01:59:25.822Z,11.09
2024-05-09T02:00:34.203Z,11.07
2024-05-09T02:01:25.777Z,11.06
2024-05-09T02:02:25.761Z,11.06
2024-05-09T02:03:25.824Z,11.06
2024-05-09T02:04:25.926Z,11.02
2024-05-09T02:05:25.726Z,11.01
2024-05-09T02:06:25.679Z,11.01
2024-05-09T02:07:25.826Z,10.99
2024-05-09T02:08:25.682Z,10.99
2024-05-09T02:09:25.625Z,11.06
2024-05-09T02:10:32.069Z,10.98
2024-05-09T02:11:25.704Z,10.99
2024-05-09T02:12:25.702Z,10.98
2024-05-09T02:13:25.578Z,10.96
2024-05-09T02:14:25.679Z,10.95
2024-05-09T02:15:25.574Z,10.99
2024-05-09T02:16:25.567Z,10.95
2024-05-09T02:17:25.802Z,10.96
2024-05-09T02:18:25.716Z,10.98
2024-05-09T02:19:25.584Z,10.92
2024-05-09T02:20:33.849Z,10.92
2024-05-09T02:21:25.510Z,10.92
2024-05-09T02:22:26.026Z,10.91
2024-05-09T02:23:25.521Z,10.86
2024-05-09T02:24:25.471Z,10.89
2024-05-09T02:25:25.472Z,10.84
2024-05-09T02:26:25.485Z,10.84
2024-05-09T02:27:25.459Z,10.91
2024-05-09T02:28:25.461Z,10.81
2024-05-09T02:29:25.553Z,10.83
2024-05-09T02:30:35.659Z,10.84
2024-05-09T02:31:25.410Z,10.80
2024-05-09T02:32:25.605Z,10.78
2024-05-09T02:33:25.665Z,10.80
2024-05-09T02:34:25.454Z,10.81
2024-05-09T02:35:25.523Z,10.77
2024-05-09T02:36:25.386Z,10.77
2024-05-09T02:37:25.326Z,10.74
2024-05-09T02:38:25.394Z,10.74
2024-05-09T02:39:25.331Z,10.76
2024-05-09T02:40:33.541Z,10.73
2024-05-09T02:41:25.383Z,10.74
2024-05-09T02:42:25.279Z,10.68
2024-05-09T02:43:25.292Z,10.73
2024-05-09T02:44:25.342Z,10.66
2024-05-09T02:45:25.362Z,10.66
2024-05-09T02:46:25.229Z,10.62
2024-05-09T02:47:25.389Z,10.65
2024-05-09T02:48:25.343Z,10.63
2024-05-09T02:49:25.340Z,10.66
2024-05-09T02:50:33.672Z,10.60
2024-05-09T02:51:25.176Z,10.60
2024-05-09T02:52:25.187Z,10.62
2024-05-09T02:53:25.189Z,10.59
2024-05-09T02:54:25.142Z,10.62
2024-05-09T02:55:25.124Z,10.58
2024-05-09T02:56:25.222Z,10.55
2024-05-09T02:57:25.134Z,10.59
2024-05-09T02:58:25.119Z,10.56
2024-05-09T02:59:25.226Z,10.56
2024-05-09T03:00:34.467Z,10.52
2024-05-09T03:01:25.279Z,10.52
2024-05-09T03:02:25.149Z,10.53
2024-05-09T03:03:25.195Z,10.47
2024-05-09T03:04:25.001Z,10.51
2024-05-09T03:05:25.023Z,10.52
2024-05-09T03:06:24.977Z,10.44
2024-05-09T03:07:24.978Z,10.44
2024-05-09T03:08:25.052Z,10.42
2024-05-09T03:09:24.924Z,10.42
2024-05-09T03:10:28.644Z,10.40
2024-05-09T03:11:25.109Z,10.39
2024-05-09T03:12:24.947Z,10.39
2024-05-09T03:13:25.157Z,10.40
2024-05-09T03:14:25.004Z,10.37
2024-05-09T03:15:24.865Z,10.37
2024-05-09T03:16:24.854Z,10.34
2024-05-09T03:17:25.128Z,10.32
2024-05-09T03:18:24.956Z,10.34
2024-05-09T03:19:24.903Z,10.32
2024-05-09T03:20:32.315Z,10.28
2024-05-09T03:21:24.799Z,10.26
2024-05-09T03:22:24.796Z,10.30
2024-05-09T03:23:24.875Z,10.28
2024-05-09T03:24:24.779Z,10.25
2024-05-09T03:25:24.793Z,10.25
2024-05-09T03:26:24.825Z,10.25
2024-05-09T03:27:24.744Z,10.22
2024-05-09T03:28:24.746Z,10.24
2024-05-09T03:29:24.823Z,10.19
2024-05-09T03:30:31.202Z,10.22
2024-05-09T03:31:24.706Z,10.25
2024-05-09T03:32:24.761Z,10.22
2024-05-09T03:33:24.900Z,10.19
2024-05-09T03:34:24.736Z,10.17
2024-05-09T03:35:24.794Z,10.17
2024-05-09T03:36:24.639Z,10.15
2024-05-09T03:37:24.639Z,10.14
2024-05-09T03:38:24.628Z,10.10
2024-05-09T03:39:24.601Z,10.07
2024-05-09T03:40:28.932Z,10.14
2024-05-09T03:41:24.635Z,10.12
2024-05-09T03:42:24.593Z,10.06
2024-05-09T03:43:24.551Z,10.06
2024-05-09T03:44:24.565Z,10.09
2024-05-09T03:45:24.560Z,10.10
2024-05-09T03:46:24.525Z,10.10
2024-05-09T03:47:24.586Z,10.12
2024-05-09T03:48:24.720Z,10.09
2024-05-09T03:49:24.840Z,10.10
2024-05-09T03:50:30.223Z,10.09
2024-05-09T03:51:24.507Z,10.12
2024-05-09T03:52:24.462Z,10.12
2024-05-09T03:53:24.533Z,10.10
2024-05-09T03:54:24.454Z,10.14
2024-05-09T03:55:24.473Z,10.12
2024-05-09T03:56:24.487Z,10.12
2024-05-09T03:57:24.410Z,10.09
2024-05-09T03:58:24.427Z,10.15
2024-05-09T03:59:24.565Z,10.12
2024-05-09T04:00:31.404Z,10.18
2024-05-09T04:01:24.442Z,10.14
2024-05-09T04:02:24.492Z,10.18
2024-05-09T04:03:24.787Z,10.19
2024-05-09T04:04:24.468Z,10.17
2024-05-09T04:05:24.387Z,10.22
2024-05-09T04:06:24.294Z,10.21
2024-05-09T04:07:24.403Z,10.25
2024-05-09T04:08:24.368Z,10.25
2024-05-09T04:09:24.383Z,10.24
2024-05-09T04:10:31.187Z,10.26
2024-05-09T04:11:24.372Z,10.30
2024-05-09T04:12:24.403Z,10.33
2024-05-09T04:13:24.286Z,10.32
2024-05-09T04:14:24.273Z,10.34
2024-05-09T04:15:24.204Z,10.39
2024-05-09T04:16:24.219Z,10.43
2024-05-09T04:17:24.306Z,10.44
2024-05-09T04:18:24.285Z,10.43
2024-05-09T04:19:24.382Z,10.44
2024-05-09T04:20:33.630Z,10.44
2024-05-09T04:21:24.139Z,10.53
2024-05-09T04:22:24.128Z,10.58
2024-05-09T04:23:24.159Z,10.58
2024-05-09T04:24:24.115Z,10.60
2024-05-09T04:25:24.104Z,10.65
2024-05-09T04:26:24.162Z,10.70
2024-05-09T04:27:24.092Z,10.68
2024-05-09T04:28:24.067Z,10.74
2024-05-09T04:29:24.153Z,10.76
2024-05-09T04:30:34.367Z,10.71
2024-05-09T04:31:24.159Z,10.77
2024-05-09T04:32:24.212Z,10.81
2024-05-09T04:33:24.301Z,10.91
2024-05-09T04:34:24.128Z,10.92
2024-05-09T04:35:24.125Z,10.91
2024-05-09T04:36:24.009Z,10.95
2024-05-09T04:37:24.020Z,10.99
2024-05-09T04:38:23.991Z,11.01
2024-05-09T04:39:23.982Z,11.07
2024-05-09T04:40:31.366Z,11.13
2024-05-09T04:41:23.983Z,11.14
2024-05-09T04:42:23.943Z,11.16
2024-05-09T04:43:23.893Z,11.19
2024-05-09T04:44:23.981Z,11.21
2024-05-09T04:45:23.890Z,11.31
2024-05-09T04:46:23.918Z,11.31
2024-05-09T04:47:23.995Z,11.36
2024-05-09T04:48:23.996Z,11.39
2024-05-09T04:49:24.136Z,11.44
2024-05-09T04:50:33.222Z,11.47
2024-05-09T04:51:23.809Z,11.52
2024-05-09T04:52:23.812Z,11.56
2024-05-09T04:53:23.837Z,11.62
2024-05-09T04:54:33.656Z,11.70
2024-05-09T04:55:23.820Z,11.68
2024-05-09T04:56:23.789Z,11.74
2024-05-09T04:57:23.750Z,11.78
2024-05-09T04:58:23.731Z,11.87
2024-05-09T04:59:23.816Z,12.19
2024-05-09T05:00:32.445Z,12.87
2024-05-09T05:01:23.744Z,13.46
2024-05-09T05:02:23.819Z,13.91
2024-05-09T05:03:23.824Z,14.21
2024-05-09T05:04:23.705Z,14.13
2024-05-09T05:05:23.727Z,14.06
2024-05-09T05:06:23.660Z,14.04
2024-05-09T05:07:23.688Z,13.92
2024-05-09T05:08:23.719Z,13.83
2024-05-09T05:09:23.651Z,13.70
2024-05-09T05:10:32.932Z,13.67
2024-05-09T05:11:23.687Z,13.65
2024-05-09T05:12:23.779Z,13.70
2024-05-09T05:13:24.366Z,13.77
2024-05-09T05:14:23.671Z,13.71
2024-05-09T05:15:23.587Z,13.77
2024-05-09T05:16:23.557Z,13.88
2024-05-09T05:17:23.635Z,13.87
2024-05-09T05:18:23.644Z,14.04
2024-05-09T05:19:23.726Z,14.06
2024-05-09T05:20:30.934Z,13.96
2024-05-09T05:21:23.537Z,13.92
2024-05-09T05:22:23.523Z,13.94
2024-05-09T05:23:23.729Z,13.96
2024-05-09T05:24:23.452Z,13.98
2024-05-09T05:25:23.520Z,14.12
2024-05-09T05:26:23.505Z,14.46
2024-05-09T05:27:23.427Z,14.75
2024-05-09T05:28:23.668Z,14.80
2024-05-09T05:29:23.448Z,14.69
2024-05-09T05:30:29.015Z,14.64
2024-05-09T05:31:23.433Z,14.68
2024-05-09T05:32:23.570Z,14.65
2024-05-09T05:33:23.769Z,14.54
2024-05-09T05:34:23.376Z,14.47
2024-05-09T05:35:23.455Z,14.37
2024-05-09T05:36:23.374Z,14.32
2024-05-09T05:37:23.323Z,14.31
2024-05-09T05:38:27.254Z,14.27
2024-05-09T05:39:23.300Z,14.25
2024-05-09T05:40:32.199Z,14.25
2024-05-09T05:41:23.354Z,14.25
2024-05-09T05:42:23.270Z,14.25
2024-05-09T05:43:23.243Z,14.24
2024-05-09T05:44:23.293Z,14.27
2024-05-09T05:45:23.237Z,14.27
2024-05-09T05:46:23.272Z,14.28
2024-05-09T05:47:23.251Z,14.28
2024-05-09T05:48:23.492Z,14.29
2024-05-09T05:49:23.281Z,14.31
2024-05-09T05:50:28.079Z,14.31
2024-05-09T05:51:23.235Z,14.34
2024-05-09T05:52:23.197Z,14.32
2024-05-09T05:53:23.431Z,14.34
2024-05-09T05:54:23.177Z,14.35
2024-05-09T05:55:23.124Z,14.37
2024-05-09T05:56:23.134Z,14.43
2024-05-09T05:57:23.258Z,14.44
2024-05-09T05:58:23.100Z,14.49
2024-05-09T05:59:23.147Z,14.54
2024-05-09T06:00:29.860Z,14.60
2024-05-09T06:01:23.137Z,14.56
2024-05-09T06:02:23.157Z,14.57
2024-05-09T06:03:23.167Z,14.57
2024-05-09T06:04:23.046Z,14.60
2024-05-09T06:05:24.268Z,14.62
2024-05-09T06:06:23.007Z,14.62
2024-05-09T06:07:22.980Z,14.68
2024-05-09T06:08:23.739Z,14.69
2024-05-09T06:09:22.974Z,14.72
2024-05-09T06:10:29.621Z,14.75
2024-05-09T06:11:23.120Z,14.75
2024-05-09T06:12:23.664Z,14.80
2024-05-09T06:13:23.165Z,14.87
2024-05-09T06:14:23.095Z,14.95
2024-05-09T06:15:22.902Z,15.03
2024-05-09T06:16:22.936Z,14.99
2024-05-09T06:17:23.046Z,14.98
2024-05-09T06:18:23.204Z,15.01
2024-05-09T06:19:22.978Z,15.03
2024-05-09T06:20:31.759Z,15.01
2024-05-09T06:21:23.061Z,15.02
2024-05-09T06:22:22.841Z,15.06
2024-05-09T06:23:22.962Z,15.12
2024-05-09T06:24:22.860Z,15.17
2024-05-09T06:25:22.813Z,15.17
2024-05-09T06:26:22.873Z,15.17
2024-05-09T06:27:22.768Z,15.23
2024-05-09T06:28:22.789Z,15.23
2024-05-09T06:29:22.880Z,15.23
2024-05-09T06:30:30.106Z,15.26
2024-05-09T06:31:22.735Z,15.27
2024-05-09T06:32:22.876Z,15.27
2024-05-09T06:33:22.918Z,15.28
2024-05-09T06:34:23.027Z,15.35
2024-05-09T06:35:22.723Z,15.43
2024-05-09T06:36:22.685Z,15.45
2024-05-09T06:37:22.671Z,15.46
2024-05-09T06:38:22.786Z,15.51
2024-05-09T06:39:22.730Z,15.51
2024-05-09T06:40:25.927Z,15.59
2024-05-09T06:41:22.690Z,15.60
2024-05-09T06:42:22.621Z,15.60
2024-05-09T06:43:22.635Z,15.66
2024-05-09T06:44:22.733Z,15.61
2024-05-09T06:45:22.580Z,15.68
2024-05-09T06:46:22.625Z,15.72
2024-05-09T06:47:22.673Z,15.72
2024-05-09T06:48:23.056Z,15.82
2024-05-09T06:49:22.702Z,15.84
2024-05-09T06:50:24.493Z,15.82
2024-05-09T06:51:22.640Z,15.89
2024-05-09T06:52:22.535Z,15.93
2024-05-09T06:53:22.535Z,15.92
2024-05-09T06:54:22.482Z,15.96
2024-05-09T06:55:22.457Z,15.94
2024-05-09T06:56:22.584Z,15.94
2024-05-09T06:57:22.442Z,15.96
2024-05-09T06:58:22.441Z,15.99
2024-05-09T06:59:22.589Z,16.04
2024-05-09T07:00:30.277Z,16.04
2024-05-09T07:01:22.601Z,16.09
2024-05-09T07:02:22.599Z,16.14
2024-05-09T07:03:22.554Z,16.12
2024-05-09T07:04:22.504Z,16.16
2024-05-09T07:05:22.549Z,16.16
2024-05-09T07:06:22.370Z,16.16
2024-05-09T07:07:22.404Z,16.18
2024-05-09T07:08:22.406Z,16.22
2024-05-09T07:09:22.320Z,16.26
2024-05-09T07:10:28.885Z,16.26
2024-05-09T07:11:22.548Z,16.26
2024-05-09T07:12:22.399Z,16.30
2024-05-09T07:13:22.265Z,16.31
2024-05-09T07:14:22.332Z,16.37
2024-05-09T07:15:22.300Z,16.40
2024-05-09T07:16:22.243Z,16.42
2024-05-09T07:17:22.517Z,16.37
2024-05-09T07:18:22.512Z,16.45
2024-05-09T07:19:22.277Z,16.48
2024-05-09T07:20:31.688Z,16.45
2024-05-09T07:21:22.232Z,16.50
2024-05-09T07:22:22.170Z,16.55
2024-05-09T07:23:22.298Z,16.56
2024-05-09T07:24:22.172Z,16.59
2024-05-09T07:25:22.142Z,16.62
2024-05-09T07:26:22.187Z,16.62
2024-05-09T07:27:22.130Z,16.70
2024-05-09T07:28:22.146Z,16.65
2024-05-09T07:29:22.135Z,16.65
2024-05-09T07:30:27.606Z,16.70
2024-05-09T07:31:22.122Z,16.74
2024-05-09T07:32:22.405Z,16.81
2024-05-09T07:33:23.689Z,16.78
2024-05-09T07:34:22.269Z,16.88
2024-05-09T07:35:22.097Z,16.88
2024-05-09T07:36:22.071Z,16.89
2024-05-09T07:37:22.086Z,16.92
2024-05-09T07:38:22.301Z,16.96
2024-05-09T07:39:22.088Z,17.03
2024-05-09T07:40:31.617Z,17.07
2024-05-09T07:41:22.048Z,17.08
2024-05-09T07:42:22.165Z,17.10
2024-05-09T07:43:21.974Z,17.14
2024-05-09T07:44:21.966Z,17.22
2024-05-09T07:45:40.618Z,17.26
2024-05-09T07:53:30.284Z,17.47
2024-05-09T07:53:49.087Z,17.50
2024-05-09T07:54:22.020Z,17.53
2024-05-09T07:55:22.045Z,17.57
2024-05-09T07:56:23.441Z,17.59
2024-05-09T07:57:21.840Z,17.62
2024-05-09T07:58:21.787Z,17.62
2024-05-09T07:59:21.826Z,17.64
2024-05-09T08:00:29.640Z,17.66
2024-05-09T08:01:21.874Z,17.64
2024-05-09T08:02:21.899Z,17.70
2024-05-09T08:03:21.798Z,17.74
2024-05-09T08:04:23.077Z,17.76
2024-05-09T08:05:21.802Z,17.76
2024-05-09T08:06:21.694Z,17.85
2024-05-09T08:07:21.758Z,17.87
2024-05-09T08:08:21.677Z,17.85
2024-05-09T08:09:21.863Z,17.92
2024-05-09T08:10:24.559Z,17.94
2024-05-09T08:11:21.718Z,17.95
2024-05-09T08:12:21.703Z,17.97
2024-05-09T08:13:21.811Z,18.02
2024-05-09T08:14:21.599Z,17.99
2024-05-09T08:15:21.610Z,18.04
2024-05-09T08:16:21.843Z,18.09
2024-05-09T08:17:21.614Z,18.07
2024-05-09T08:18:21.646Z,18.10
2024-05-09T08:19:21.662Z,18.18
2024-05-09T08:20:30.261Z,18.22
2024-05-09T08:21:21.556Z,18.22
2024-05-09T08:22:21.550Z,18.24
2024-05-09T08:23:21.508Z,18.29
2024-05-09T08:24:21.535Z,18.31
2024-05-09T08:25:21.594Z,18.40
2024-05-09T08:26:21.477Z,18.40
2024-05-09T08:27:21.474Z,18.42
2024-05-09T08:28:21.617Z,18.47
2024-05-09T08:29:21.463Z,18.44
2024-05-09T08:30:29.075Z,18.54
2024-05-09T08:31:21.510Z,18.54
2024-05-09T08:32:21.440Z,18.54
2024-05-09T08:33:21.506Z,18.58
2024-05-09T08:34:21.660Z,18.57
2024-05-09T08:35:21.388Z,18.61
2024-05-09T08:36:21.361Z,18.67
2024-05-09T08:37:23.597Z,18.67
2024-05-09T08:38:21.348Z,18.73
2024-05-09T08:39:21.331Z,18.73
2024-05-09T08:40:30.548Z,18.82
2024-05-09T08:41:21.334Z,18.82
2024-05-09T08:42:21.326Z,18.84
2024-05-09T08:43:21.765Z,18.87
2024-05-09T08:44:21.294Z,18.90
2024-05-09T08:45:21.265Z,18.92
2024-05-09T08:46:21.536Z,18.97
2024-05-09T08:47:21.299Z,19.05
2024-05-09T08:48:21.453Z,19.02
2024-05-09T08:49:21.319Z,19.13
2024-05-09T08:50:31.448Z,19.13
2024-05-09T08:51:21.229Z,19.18
2024-05-09T08:52:21.231Z,19.23
2024-05-09T08:53:21.209Z,19.29
2024-05-09T08:54:21.205Z,19.31
2024-05-09T08:55:21.184Z,19.36
2024-05-09T08:56:21.147Z,19.39
2024-05-09T08:57:21.154Z,19.43
2024-05-09T08:58:21.208Z,19.53
2024-05-09T08:59:21.121Z,19.54
2024-05-09T09:00:29.212Z,19.58
2024-05-09T09:01:21.201Z,19.65
2024-05-09T09:02:21.479Z,19.68
2024-05-09T09:03:21.129Z,19.70
2024-05-09T09:04:21.216Z,19.80
2024-05-09T09:05:21.174Z,19.79
2024-05-09T09:06:21.041Z,19.79
2024-05-09T09:07:21.160Z,19.87
2024-05-09T09:08:21.043Z,19.91
2024-05-09T09:09:20.999Z,19.90
2024-05-09T09:10:25.450Z,19.95
2024-05-09T09:11:21.049Z,20.00
2024-05-09T09:12:21.020Z,20.00
2024-05-09T09:13:21.006Z,19.97
2024-05-09T09:14:20.978Z,20.05
2024-05-09T09:15:21.018Z,20.02
2024-05-09T09:16:21.013Z,20.05
2024-05-09T09:17:21.204Z,20.02
2024-05-09T09:18:21.746Z,20.09
2024-05-09T09:19:21.120Z,20.13
2024-05-09T09:20:26.425Z,20.15
2024-05-09T09:21:21.065Z,20.15
2024-05-09T09:22:20.867Z,20.23
2024-05-09T09:23:20.888Z,20.25
2024-05-09T09:24:20.940Z,20.30
2024-05-09T09:25:20.896Z,20.31
2024-05-09T09:26:21.282Z,20.41
2024-05-09T09:27:20.827Z,20.43
2024-05-09T09:28:20.879Z,20.49
2024-05-09T09:29:20.805Z,20.53
2024-05-09T09:30:31.856Z,20.59
2024-05-09T09:31:20.809Z,20.59
2024-05-09T09:32:21.044Z,20.62
2024-05-09T09:33:20.869Z,20.69
2024-05-09T09:34:20.852Z,20.79
2024-05-09T09:35:20.803Z,20.74
2024-05-09T09:36:20.719Z,20.79
2024-05-09T09:37:20.853Z,20.83
2024-05-09T09:38:20.706Z,20.93
2024-05-09T09:39:20.793Z,20.98
2024-05-09T09:40:22.235Z,20.99
2024-05-09T09:41:20.769Z,21.04
2024-05-09T09:42:20.771Z,21.06
2024-05-09T09:43:21.444Z,21.09
2024-05-09T09:44:20.683Z,21.19
2024-05-09T09:45:20.642Z,21.23
2024-05-09T09:46:20.676Z,21.23
2024-05-09T09:47:21.278Z,21.23
2024-05-09T09:48:20.859Z,21.32
2024-05-09T09:49:21.361Z,21.30
2024-05-09T09:50:27.249Z,21.30
2024-05-09T09:51:20.559Z,21.34
2024-05-09T09:52:20.755Z,21.32
2024-05-09T09:53:20.610Z,21.35
2024-05-09T09:54:20.608Z,21.35
2024-05-09T09:55:20.569Z,21.41
2024-05-09T09:56:20.490Z,21.48
2024-05-09T09:57:20.538Z,21.46
2024-05-09T09:58:20.596Z,21.60
2024-05-09T09:59:20.525Z,21.61
2024-05-09T10:00:26.830Z,21.69
2024-05-09T10:01:20.576Z,21.69
2024-05-09T10:02:20.568Z,21.64
2024-05-09T10:03:20.590Z,21.46
2024-05-09T10:04:20.547Z,21.36
2024-05-09T10:05:20.459Z,21.27
2024-05-09T10:06:20.446Z,21.29
2024-05-09T10:07:20.422Z,21.20
2024-05-09T10:08:20.383Z,21.14
2024-05-09T10:09:20.380Z,21.14
2024-05-09T10:10:27.073Z,21.27
2024-05-09T10:11:20.405Z,21.45
2024-05-09T10:12:20.413Z,21.57
2024-05-09T10:13:20.721Z,21.61
2024-05-09T10:14:20.336Z,21.64
2024-05-09T10:15:20.345Z,21.74
2024-05-09T10:16:20.451Z,21.81
2024-05-09T10:17:20.296Z,21.92
2024-05-09T10:18:20.369Z,21.98
2024-05-09T10:19:20.388Z,22.10
2024-05-09T10:20:24.697Z,22.20
2024-05-09T10:21:20.460Z,22.27
2024-05-09T10:22:20.286Z,22.25
2024-05-09T10:23:20.279Z,22.34
2024-05-09T10:24:20.204Z,22.37
2024-05-09T10:25:20.203Z,22.46
2024-05-09T10:26:20.187Z,22.52
2024-05-09T10:27:20.165Z,22.59
2024-05-09T10:28:20.377Z,22.67
2024-05-09T10:29:20.206Z,22.82
2024-05-09T10:30:25.986Z,22.87
2024-05-09T10:31:20.149Z,22.94
2024-05-09T10:32:20.235Z,23.02
2024-05-09T10:33:20.229Z,23.11
2024-05-09T10:34:20.647Z,23.14
2024-05-09T10:35:20.073Z,23.27
2024-05-09T10:36:20.181Z,23.39
2024-05-09T10:37:20.197Z,23.45
2024-05-09T10:38:20.079Z,23.55
2024-05-09T10:39:20.051Z,23.67
2024-05-09T10:40:26.293Z,23.76
2024-05-09T10:41:20.075Z,23.83
2024-05-09T10:42:20.022Z,23.94
2024-05-09T10:43:20.328Z,23.98
2024-05-09T10:44:19.982Z,24.00
2024-05-09T10:45:20.082Z,24.05
2024-05-09T10:46:20.385Z,24.01
2024-05-09T10:47:20.112Z,23.97
2024-05-09T10:48:20.241Z,23.95
2024-05-09T10:49:20.264Z,23.94
2024-05-09T10:50:25.758Z,23.94
2024-05-09T10:51:19.983Z,23.92
2024-05-09T10:52:19.998Z,23.97
2024-05-09T10:53:20.043Z,24.05
2024-05-09T10:54:20.020Z,24.23
2024-05-09T10:55:20.054Z,24.37
2024-05-09T10:56:19.852Z,24.27
2024-05-09T10:57:19.853Z,24.23
2024-05-09T10:58:19.942Z,24.39
2024-05-09T10:59:19.849Z,24.54
2024-05-09T11:00:27.537Z,24.50
2024-05-09T11:01:19.959Z,24.69
2024-05-09T11:02:19.888Z,24.85
2024-05-09T11:03:19.838Z,24.97
2024-05-09T11:04:19.999Z,24.76
2024-05-09T11:05:19.990Z,24.68
2024-05-09T11:06:19.776Z,24.54
2024-05-09T11:07:19.899Z,24.41
2024-05-09T11:08:19.871Z,24.41
2024-05-09T11:09:19.722Z,24.32
2024-05-09T11:10:27.342Z,24.24
2024-05-09T11:11:19.841Z,24.23
2024-05-09T11:12:22.050Z,24.16
2024-05-09T11:13:19.746Z,24.34
2024-05-09T11:14:19.659Z,24.50
2024-05-09T11:15:19.697Z,24.71
2024-05-09T11:16:20.512Z,24.73
2024-05-09T11:17:19.760Z,24.73
2024-05-09T11:18:21.667Z,24.87
2024-05-09T11:19:20.012Z,24.97
2024-05-09T11:20:26.702Z,24.79
2024-05-09T11:21:19.571Z,24.68
2024-05-09T11:22:19.656Z,24.61
2024-05-09T11:23:19.572Z,24.59
2024-05-09T11:24:19.562Z,24.47
2024-05-09T11:25:19.624Z,24.42
2024-05-09T11:26:19.567Z,24.29
2024-05-09T11:27:19.752Z,24.19
2024-05-09T11:28:19.509Z,24.08
2024-05-09T11:29:19.944Z,24.00
2024-05-09T11:31:19.643Z,23.82
2024-05-09T11:32:19.612Z,23.83
2024-05-09T11:33:19.724Z,23.97
2024-05-09T11:34:19.464Z,24.13
2024-05-09T11:35:19.436Z,24.23
2024-05-09T11:36:19.493Z,24.29
2024-05-09T11:37:19.448Z,24.32
2024-05-09T11:38:19.412Z,24.41
2024-05-09T11:39:19.387Z,24.41
2024-05-09T11:40:25.344Z,24.29
2024-05-09T11:41:19.366Z,24.14
2024-05-09T11:42:19.337Z,24.05
2024-05-09T11:43:19.538Z,24.00
2024-05-09T11:44:19.368Z,24.02
2024-05-09T11:45:19.327Z,24.24
2024-05-09T11:46:19.399Z,24.42
2024-05-09T11:47:19.399Z,24.59
2024-05-09T11:48:19.494Z,24.80
2024-05-09T11:49:19.491Z,25.06
2024-05-09T11:50:26.946Z,25.17
2024-05-09T11:51:19.265Z,25.38
2024-05-09T11:52:19.330Z,25.56
2024-05-09T11:53:19.250Z,25.72
2024-05-09T11:54:19.244Z,25.91
2024-05-09T11:55:19.339Z,26.04
2024-05-09T11:56:19.210Z,26.18
2024-05-09T11:57:19.254Z,26.28
2024-05-09T11:58:19.541Z,26.40
2024-05-09T11:59:19.202Z,26.29
2024-05-09T12:00:28.995Z,26.28
2024-05-09T12:01:19.199Z,26.21
2024-05-09T12:02:19.366Z,26.15
2024-05-09T12:03:19.341Z,26.06
2024-05-09T12:04:19.453Z,26.02
2024-05-09T12:05:19.576Z,25.99
2024-05-09T12:06:19.115Z,25.89
2024-05-09T12:07:19.240Z,25.74
2024-05-09T12:08:19.126Z,25.64
2024-05-09T12:09:19.113Z,25.46
2024-05-09T12:10:22.457Z,25.31
2024-05-09T12:11:19.072Z,25.19
2024-05-09T12:12:19.052Z,25.09
2024-05-09T12:13:19.175Z,25.02
2024-05-09T12:14:19.038Z,25.00
2024-05-09T12:15:19.036Z,24.95
2024-05-09T12:16:19.191Z,24.94
2024-05-09T12:17:19.048Z,24.97
2024-05-09T12:18:19.318Z,25.00
2024-05-09T12:19:19.053Z,24.98
2024-05-09T12:20:28.272Z,25.07
2024-05-09T12:21:18.942Z,25.07
2024-05-09T12:22:19.010Z,25.07
2024-05-09T12:23:18.929Z,25.01
2024-05-09T12:24:18.964Z,24.92
2024-05-09T12:25:18.985Z,24.83
2024-05-09T12:26:18.933Z,24.75
2024-05-09T12:27:18.889Z,24.67
2024-05-09T12:28:19.077Z,24.53
2024-05-09T12:29:18.922Z,24.42
2024-05-09T12:30:32.079Z,24.29
2024-05-09T12:31:18.948Z,24.20
2024-05-09T12:32:18.962Z,24.14
2024-05-09T12:33:18.924Z,24.13
2024-05-09T12:34:18.856Z,24.13
2024-05-09T12:35:18.807Z,24.13
2024-05-09T12:36:18.779Z,24.10
2024-05-09T12:37:18.813Z,24.13
2024-05-09T12:38:18.778Z,24.12
2024-05-09T12:39:18.732Z,24.12
2024-05-09T12:40:26.727Z,24.14
2024-05-09T12:41:18.724Z,24.08
2024-05-09T12:42:26.753Z,24.12
2024-05-09T12:43:18.808Z,24.16
2024-05-09T12:44:18.690Z,24.16
2024-05-09T12:45:18.679Z,24.26
2024-05-09T12:46:18.834Z,24.37
2024-05-09T12:47:18.780Z,24.39
2024-05-09T12:48:18.714Z,24.38
2024-05-09T12:49:19.460Z,24.42
2024-05-09T12:50:25.025Z,24.42
2024-05-09T12:51:18.617Z,24.44
2024-05-09T12:52:18.613Z,24.41
2024-05-09T12:53:18.571Z,24.42
2024-05-09T12:54:18.609Z,24.34
2024-05-09T12:55:18.591Z,24.32
2024-05-09T12:56:18.588Z,24.31
2024-05-09T12:57:18.593Z,24.24
2024-05-09T12:58:18.728Z,24.22
2024-05-09T12:59:18.518Z,24.17